createdAt,value
2023-05-06T00:04:29.019Z,25.30
2023-05-06T00:09:31.556Z,28.65
2023-05-06T00:14:35.154Z,27.13
2023-05-06T00:19:39.945Z,28.80
2023-05-06T00:24:43.022Z,26.02
2023-05-06T00:29:46.262Z,19.75
2023-05-06T00:34:49.383Z,36.95
2023-05-06T00:39:52.859Z,23.13
2023-05-06T00:44:55.920Z,29.27
2023-05-06T00:49:58.640Z,21.90
2023-05-06T00:55:01.216Z,29.25
2023-05-06T01:00:07.655Z,23.83
2023-05-06T01:05:12.466Z,19.98
2023-05-06T01:10:36.290Z,28.02
2023-05-06T01:15:47.552Z,20.13
2023-05-06T01:20:53.687Z,22.80
2023-05-06T01:25:57.330Z,32.17
2023-05-06T01:31:05.871Z,29.10
2023-05-06T01:36:29.411Z,22.33
2023-05-06T01:41:37.236Z,26.08
2023-05-06T01:46:40.173Z,26.73
2023-05-06T01:51:48.872Z,19.20
2023-05-06T01:56:51.801Z,35.03
2023-05-06T02:01:54.827Z,32.38
2023-05-06T02:06:58.679Z,27.73
2023-05-06T02:12:01.912Z,25.45
2023-05-06T02:17:06.034Z,21.92
2023-05-06T02:22:09.007Z,28.15
2023-05-06T02:27:11.789Z,30.63
2023-05-06T02:32:16.762Z,27.38
2023-05-06T02:37:19.573Z,32.63
2023-05-06T02:42:22.719Z,40.25
2023-05-06T02:47:25.471Z,28.52
2023-05-06T02:52:29.073Z,32.75
2023-05-06T02:57:31.944Z,29.85
2023-05-06T03:02:35.033Z,32.50
2023-05-06T03:07:38.949Z,36.30
2023-05-06T03:12:43.033Z,35.25
2023-05-06T03:17:47.988Z,37.50
2023-05-06T03:22:52.236Z,35.78
2023-05-06T03:27:58.117Z,30.23
2023-05-06T03:33:04.857Z,35.25
2023-05-06T03:38:09.785Z,31.83
2023-05-06T03:43:20.696Z,33.22
2023-05-06T03:48:28.559Z,35.35
2023-05-06T03:53:31.891Z,32.25
2023-05-06T03:58:35.500Z,29.83
2023-05-06T04:03:40.757Z,29.15
2023-05-06T04:08:43.609Z,24.50
2023-05-06T04:13:47.167Z,21.75
2023-05-06T04:18:55.563Z,24.85
2023-05-06T04:23:59.316Z,25.77
2023-05-06T04:34:21.290Z,22.80
2023-05-06T04:39:25.193Z,45.92
2023-05-06T04:44:27.718Z,20.60
2023-05-06T04:49:31.553Z,26.75
2023-05-06T04:54:34.277Z,27.52
2023-05-06T04:59:37.504Z,21.52
2023-05-06T05:04:39.975Z,22.02
2023-05-06T05:09:43.849Z,25.08
2023-05-06T05:14:48.162Z,26.73
2023-05-06T05:19:51.605Z,21.00
2023-05-06T05:24:55.482Z,21.95
2023-05-06T05:29:59.123Z,20.73
2023-05-06T05:35:02.469Z,24.98
2023-05-06T05:40:06.937Z,14.80
2023-05-06T05:45:12.539Z,16.10
2023-05-06T05:50:16.933Z,15.27
2023-05-06T05:55:21.650Z,16.92
2023-05-06T06:00:26.006Z,17.83
2023-05-06T06:05:36.111Z,16.02
2023-05-06T06:10:38.604Z,17.48
2023-05-06T06:15:47.387Z,14.27
2023-05-06T06:25:56.210Z,16.42
2023-05-06T06:30:58.703Z,13.88
2023-05-06T06:36:01.624Z,14.60
2023-05-06T06:41:04.841Z,15.30
2023-05-06T06:46:08.469Z,18.88
2023-05-06T06:51:11.428Z,15.20
2023-05-06T06:56:16.105Z,13.48
2023-05-06T07:01:19.446Z,14.27
2023-05-06T07:06:22.399Z,13.48
2023-05-06T07:11:25.430Z,13.10
2023-05-06T07:16:28.821Z,18.27
2023-05-06T07:21:34.279Z,14.98
2023-05-06T07:26:37.887Z,11.02
2023-05-06T07:31:40.237Z,14.35
2023-05-06T07:36:43.748Z,17.13
2023-05-06T07:41:46.088Z,15.95
2023-05-06T07:46:49.299Z,13.10
2023-05-06T07:51:52.105Z,17.63
2023-05-06T07:56:55.084Z,17.02
2023-05-06T08:01:57.374Z,12.57
2023-05-06T08:07:00.288Z,14.20
2023-05-06T08:12:03.474Z,12.88
2023-05-06T08:17:06.294Z,13.70
2023-05-06T08:22:08.880Z,13.70
2023-05-06T08:27:11.137Z,16.38
2023-05-06T08:32:14.167Z,12.40
2023-05-06T08:37:17.053Z,18.02
2023-05-06T08:42:21.817Z,17.00
2023-05-06T08:47:24.894Z,11.40
2023-05-06T08:52:28.846Z,12.57
2023-05-06T08:57:32.401Z,13.63
2023-05-06T09:02:35.975Z,17.92
2023-05-06T09:07:39.025Z,13.70
2023-05-06T09:12:41.937Z,12.80
2023-05-06T09:17:46.181Z,18.98
2023-05-06T09:22:49.680Z,16.88
2023-05-06T09:28:03.294Z,19.17
2023-05-06T09:33:06.972Z,16.08
2023-05-06T09:38:10.832Z,15.75
2023-05-06T09:43:13.371Z,12.02
2023-05-06T09:48:16.650Z,18.90
2023-05-06T09:53:21.143Z,18.90
2023-05-06T09:58:25.962Z,15.30
2023-05-06T10:03:29.744Z,21.48
2023-05-06T10:08:35.160Z,43.92
2023-05-06T10:13:40.774Z,18.05
2023-05-06T10:18:46.322Z,17.55
2023-05-06T10:24:14.078Z,22.60
2023-05-06T10:29:17.788Z,22.83
2023-05-06T10:34:23.218Z,33.33
2023-05-06T10:39:26.651Z,17.65
2023-05-06T10:45:04.259Z,21.52
2023-05-06T10:50:28.913Z,27.25
2023-05-06T10:55:35.198Z,30.13
2023-05-06T11:00:41.749Z,20.45
2023-05-06T11:05:54.693Z,15.13
2023-05-06T11:10:57.154Z,13.93
2023-05-06T11:16:02.040Z,18.98
2023-05-06T11:26:11.345Z,11.90
2023-05-06T11:31:15.290Z,12.75
2023-05-06T11:36:19.878Z,10.90
2023-05-06T11:41:23.758Z,16.88
2023-05-06T11:46:32.457Z,19.35
2023-05-06T11:51:35.481Z,20.58
2023-05-06T11:57:08.075Z,15.50
2023-05-06T12:02:17.278Z,10.60
2023-05-06T12:07:21.723Z,12.90
2023-05-06T12:12:25.162Z,10.95
2023-05-06T12:17:28.070Z,13.38
2023-05-06T12:22:31.650Z,12.38
2023-05-06T12:27:35.690Z,9.23
2023-05-06T12:32:57.896Z,11.82
2023-05-06T12:38:16.721Z,11.88
2023-05-06T12:43:28.069Z,6.78
2023-05-06T12:48:31.175Z,10.30
2023-05-06T12:53:35.684Z,13.05
2023-05-06T12:58:39.792Z,13.57
2023-05-06T13:03:42.242Z,9.25
2023-05-06T13:08:45.188Z,8.07
2023-05-06T13:13:47.972Z,13.23
2023-05-06T13:18:50.756Z,13.32
2023-05-06T13:23:53.433Z,10.43
2023-05-06T13:28:56.612Z,10.25
2023-05-06T13:33:59.089Z,15.95
2023-05-06T13:39:02.137Z,12.32
2023-05-06T13:44:05.674Z,12.05
2023-05-06T13:49:08.243Z,10.32
2023-05-06T13:54:11.733Z,11.07
2023-05-06T13:59:14.316Z,18.67
2023-05-06T14:04:17.415Z,12.43
2023-05-06T14:09:19.737Z,13.75
2023-05-06T14:14:22.535Z,13.18
2023-05-06T14:19:25.877Z,13.20
2023-05-06T14:24:28.698Z,13.77
2023-05-06T14:29:31.906Z,13.70
2023-05-06T14:34:36.273Z,14.80
2023-05-06T14:39:39.803Z,15.48
2023-05-06T14:44:43.488Z,16.20
2023-05-06T14:49:46.362Z,20.88
2023-05-06T14:54:50.583Z,19.05
2023-05-06T14:59:53.824Z,12.82
2023-05-06T15:04:56.885Z,14.95
2023-05-06T15:10:00.500Z,13.55
2023-05-06T15:15:03.043Z,12.07
2023-05-06T15:20:09.267Z,16.75
2023-05-06T15:25:19.438Z,15.55
2023-05-06T15:35:32.284Z,13.32
2023-05-06T15:40:35.341Z,11.63
2023-05-06T15:45:38.628Z,14.73
2023-05-06T15:50:42.026Z,13.82
2023-05-06T15:55:47.803Z,17.60
2023-05-06T16:00:58.565Z,15.60
2023-05-06T16:06:01.492Z,15.38
2023-05-06T16:11:05.606Z,16.70
2023-05-06T16:16:08.211Z,9.32
2023-05-06T16:21:12.292Z,13.85
2023-05-06T16:26:15.031Z,11.95
2023-05-06T16:31:19.176Z,12.93
2023-05-06T16:36:23.058Z,14.15
2023-05-06T16:41:26.010Z,8.77
2023-05-06T16:46:29.643Z,15.85
2023-05-06T16:51:32.573Z,15.75
2023-05-06T16:56:48.045Z,20.10
2023-05-06T17:01:55.428Z,18.23
2023-05-06T17:06:57.872Z,13.70
2023-05-06T17:12:00.760Z,12.70
2023-05-06T17:17:05.930Z,14.15
2023-05-06T17:22:08.773Z,12.30
2023-05-06T17:27:12.572Z,13.70
2023-05-06T17:32:15.491Z,7.60
2023-05-06T17:37:18.788Z,5.57
2023-05-06T17:42:21.836Z,4.35
2023-05-06T17:47:25.275Z,5.38
2023-05-06T17:52:27.942Z,5.25
2023-05-06T17:57:33.596Z,10.70
2023-05-06T18:02:36.439Z,2.95
2023-05-06T18:07:39.687Z,5.45
2023-05-06T18:12:42.253Z,4.80
2023-05-06T18:17:46.675Z,7.40
2023-05-06T18:22:49.777Z,4.97
2023-05-06T18:27:52.506Z,6.45
2023-05-06T18:32:56.629Z,3.90
2023-05-06T18:37:59.819Z,6.05
2023-05-06T18:43:03.319Z,3.05
2023-05-06T18:48:06.288Z,3.33
2023-05-06T18:53:08.864Z,3.25
2023-05-06T18:58:11.163Z,4.28
2023-05-06T19:03:13.453Z,3.60
2023-05-06T19:08:16.482Z,3.25
2023-05-06T19:13:18.964Z,4.95
2023-05-06T19:18:21.534Z,3.45
2023-05-06T19:23:23.812Z,3.97
2023-05-06T19:28:26.371Z,5.90
2023-05-06T19:33:28.831Z,11.70
2023-05-06T19:38:31.313Z,10.18
2023-05-06T19:43:33.658Z,8.75
2023-05-06T19:48:36.975Z,8.52
2023-05-06T19:53:39.426Z,11.35
2023-05-06T19:58:41.878Z,11.93
2023-05-06T20:03:44.253Z,13.27
2023-05-06T20:08:46.936Z,6.38
2023-05-06T20:13:49.806Z,4.20
2023-05-06T20:18:53.504Z,4.03
2023-05-06T20:23:55.873Z,4.20
2023-05-06T20:28:58.303Z,3.78
2023-05-06T20:34:01.308Z,2.75
2023-05-06T20:39:03.722Z,3.65
2023-05-06T20:44:07.088Z,4.22
2023-05-06T20:49:09.627Z,4.03
2023-05-06T20:54:12.719Z,4.65
2023-05-06T20:59:15.141Z,4.15
2023-05-06T21:04:19.584Z,3.30
2023-05-06T21:09:22.027Z,5.10
2023-05-06T21:14:27.052Z,4.97
2023-05-06T21:19:29.992Z,4.15
2023-05-06T21:24:32.336Z,4.57
2023-05-06T21:29:34.595Z,3.08
2023-05-06T21:34:37.791Z,5.35
2023-05-06T21:39:40.097Z,3.42
2023-05-06T21:44:42.950Z,2.42
2023-05-06T21:49:45.227Z,11.02
2023-05-06T21:54:48.336Z,2.08
2023-05-06T21:59:52.282Z,3.50
2023-05-06T22:04:54.550Z,2.22
2023-05-06T22:09:57.872Z,3.42
2023-05-06T22:15:00.840Z,2.55
2023-05-06T22:20:11.695Z,4.18
2023-05-06T22:25:14.270Z,4.55
2023-05-06T22:30:16.739Z,4.38
2023-05-06T22:35:19.896Z,3.10
2023-05-06T22:40:23.072Z,1.88
2023-05-06T22:45:25.409Z,4.55
2023-05-06T22:50:28.410Z,4.55
2023-05-06T22:55:30.808Z,2.67
2023-05-06T23:00:33.674Z,2.03
2023-05-06T23:05:36.618Z,2.97
2023-05-06T23:10:38.937Z,3.53
2023-05-06T23:15:41.352Z,2.30
2023-05-06T23:20:44.589Z,2.95
2023-05-06T23:25:46.907Z,4.25
2023-05-06T23:30:49.967Z,3.38
2023-05-06T23:35:53.524Z,4.15
2023-05-06T23:40:57.066Z,1.40
2023-05-06T23:46:00.557Z,1.83
2023-05-06T23:51:03.510Z,1.30
2023-05-06T23:56:06.658Z,2.92
